Time;durP1;ratioP1;P1;durP2;ratioP2;P2;SDS_P1;SDS_P2;PMS_P1;PMS_P2;Temp;Humidity;BMP_temperature;BMP_pressure;BME280_temperature;BME280_humidity;BME280_pressure;Samples;Min_cycle;Max_cycle;Signal;HPM_P1;HPM_P2
2022/08/11 08:18:27;;;;;;;9.52;4.55;;;;;;;23.39;45.49;102060.56;5263111;28;20045;-71
2022/08/11 08:21:10;;;;;;;6.78;3.95;;;;;;;23.51;46.08;102061.78;5271080;28;20025;-72
2022/08/11 08:23:46;;;;;;;5.50;4.53;;;;;;;23.51;45.40;102059.78;5274453;28;20083;-73
2022/08/11 08:31:57;;;;;;;6.47;4.43;;;;;;;23.78;45.67;102058.34;5260982;28;20034;-73
2022/08/11 08:34:29;;;;;;;9.88;4.60;;;;;;;23.94;44.96;102060.50;5272788;28;20025;-70
2022/08/11 08:37:01;;;;;;;19.92;7.65;;;;;;;23.90;44.37;102056.69;5249963;28;20029;-69
2022/08/11 08:39:36;;;;;;;13.90;11.05;;;;;;;24.02;44.12;102056.72;5266885;28;20021;-70
2022/08/11 08:42:12;;;;;;;;;;;;;;;24.13;44.40;102049.41;5264437;28;20025;-72
2022/08/11 08:44:51;;;;;;;9.60;4.40;;;;;;;24.26;44.57;102056.75;5267631;28;20027;-72
2022/08/11 08:47:25;;;;;;;9.63;3.90;;;;;;;24.34;44.41;102062.63;5258083;28;20468;-72
2022/08/11 08:50:02;;;;;;;5.45;4.13;;;;;;;24.43;43.46;102057.66;5261372;28;20044;-72
2022/08/11 08:52:41;;;;;;;6.63;4.28;;;;;;;24.54;43.06;102056.03;5261844;28;20038;-72
2022/08/11 08:55:18;;;;;;;8.77;4.20;;;;;;;24.69;42.80;102049.63;5263920;28;20471;-72
2022/08/11 08:57:53;;;;;;;9.35;4.10;;;;;;;24.76;42.50;102048.22;5274761;28;20135;-73
2022/08/11 09:00:27;;;;;;;8.00;4.10;;;;;;;24.87;41.55;102055.03;5262619;28;20429;-73
2022/08/11 09:03:00;;;;;;;7.57;4.05;;;;;;;24.90;42.28;102051.47;5271042;28;20028;-70
2022/08/11 09:05:32;;;;;;;5.28;3.60;;;;;;;24.89;41.48;102047.81;5264095;28;20033;-69
2022/08/11 09:08:04;;;;;;;14.30;4.18;;;;;;;24.99;41.96;102057.84;5273384;28;20072;-69
2022/08/11 09:10:37;;;;;;;5.38;3.88;;;;;;;25.04;41.39;102049.06;5258705;28;20064;-69
2022/08/11 09:13:08;;;;;;;6.22;3.70;;;;;;;25.25;41.41;102048.88;5243488;28;20037;-72
2022/08/11 09:15:40;;;;;;;8.50;4.43;;;;;;;25.22;41.13;102051.63;5263975;28;20486;-72
2022/08/11 09:18:12;;;;;;;6.63;4.53;;;;;;;25.26;40.87;102053.41;5258377;28;20026;-72
2022/08/11 09:20:43;;;;;;;4.50;3.80;;;;;;;25.45;40.18;102052.69;5251059;28;20036;-73
2022/08/11 09:28:56;;;;;;;7.05;4.18;;;;;;;25.68;38.32;102040.75;5235570;28;20033;-72
2022/08/11 09:31:34;;;;;;;7.70;4.55;;;;;;;25.78;39.10;102041.03;5244655;28;20114;-72
2022/08/11 09:34:05;;;;;;;4.93;3.97;;;;;;;25.84;37.90;102041.56;5262799;28;20376;-72
2022/08/11 09:42:21;;;;;;;6.75;3.40;;;;;;;26.18;37.42;102033.53;5242962;28;20030;-73
2022/08/11 09:44:53;;;;;;;6.03;3.85;;;;;;;26.24;36.88;102032.06;5237437;28;20032;-73
2022/08/11 09:47:27;;;;;;;5.13;4.15;;;;;;;26.28;35.63;102030.16;5236678;28;20384;-73
2022/08/11 09:50:00;;;;;;;5.22;3.47;;;;;;;26.39;35.37;102031.22;5258956;28;20464;-74
2022/08/11 09:52:36;;;;;;;5.75;3.22;;;;;;;26.51;35.33;102021.75;5243373;28;20079;-74
2022/08/11 09:55:11;;;;;;;5.47;3.55;;;;;;;26.57;36.79;102022.31;5254682;28;20091;-75
2022/08/11 10:00:36;;;;;;;7.13;3.75;;;;;;;26.66;36.72;102017.22;5237232;28;20052;-75
2022/08/11 10:03:20;;;;;;;6.15;3.40;;;;;;;26.78;36.15;102008.53;5247801;28;20021;-75
2022/08/11 10:08:51;;;;;;;39.08;35.08;;;;;;;26.84;35.99;102012.75;5255180;28;20045;-76
2022/08/11 10:11:23;;;;;;;21.73;19.40;;;;;;;26.78;35.62;102008.53;5257691;28;20033;-76
2022/08/11 10:16:47;;;;;;;5.03;4.35;;;;;;;27.13;35.74;102004.81;5261832;28;20045;-75
2022/08/11 10:19:20;;;;;;;7.50;3.72;;;;;;;27.10;35.89;102002.72;5239772;28;20037;-73
2022/08/11 10:27:34;;;;;;;6.82;3.67;;;;;;;27.25;36.03;101995.28;5248313;28;20037;-73
2022/08/11 10:35:47;;;;;;;8.00;3.60;;;;;;;27.44;35.94;101997.31;5244782;28;20073;-71
2022/08/11 10:38:19;;;;;;;6.32;3.40;;;;;;;27.48;35.46;101996.16;5248900;28;20045;-71
2022/08/11 10:43:45;;;;;;;5.78;3.75;;;;;;;27.63;34.42;101990.72;5250541;28;20030;-74
2022/08/11 10:49:10;;;;;;;11.68;7.05;;;;;;;27.71;34.47;101992.47;5255009;28;20041;-74
2022/08/11 11:00:14;;;;;;;16.48;14.57;;;;;;;27.86;34.04;101988.69;5241956;28;20132;-79
2022/08/11 11:02:46;;;;;;;8.30;4.40;;;;;;;27.94;33.24;101976.25;5251440;28;20104;-78
2022/08/11 11:05:27;;;;;;;7.57;3.67;;;;;;;27.99;32.55;101975.06;5250545;28;20021;-80
2022/08/11 11:08:51;;;;;;;13.52;3.95;;;;;;;28.18;32.09;101972.13;5242878;28;20076;-80
2022/08/11 11:11:01;;;;;;;13.75;12.35;;;;;;;28.22;32.00;101977.06;5251007;28;20037;-80
2022/08/11 11:19:22;;;;;;;5.28;3.17;;;;;;;28.30;30.57;101973.09;5255411;28;20037;-81
2022/08/11 11:22:36;;;;;;;4.50;2.90;;;;;;;28.49;30.80;101975.03;5255368;28;20160;-80
2022/08/11 11:25:02;;;;;;;3.40;3.10;;;;;;;28.53;30.59;101970.19;5255369;28;20029;-75
2022/08/11 11:27:53;;;;;;;5.30;2.40;;;;;;;28.59;29.70;101969.47;5229743;28;20088;-77
2022/08/11 11:30:35;;;;;;;5.30;3.00;;;;;;;28.61;28.91;101971.97;5248415;28;20514;-76
2022/08/11 11:33:14;;;;;;;5.57;3.67;;;;;;;28.70;30.00;101972.47;5251698;28;20021;-77
2022/08/11 11:36:03;;;;;;;4.72;2.70;;;;;;;28.69;30.42;101967.16;5243018;28;20032;-77
2022/08/11 11:38:34;;;;;;;3.35;2.50;;;;;;;28.84;29.58;101966.13;5257076;28;20124;-75
2022/08/11 11:43:57;;;;;;;4.78;2.90;;;;;;;28.80;28.50;101966.06;5248012;28;20030;-77
2022/08/11 11:46:34;;;;;;;6.50;3.05;;;;;;;28.87;28.58;101962.50;5257468;28;20025;-77
2022/08/11 11:49:08;;;;;;;8.02;3.95;;;;;;;28.92;28.82;101958.47;5243716;28;20026;-77
2022/08/11 11:51:40;;;;;;;3.20;2.67;;;;;;;28.88;29.13;101954.75;5256863;28;20168;-73
2022/08/11 11:54:14;;;;;;;5.13;3.40;;;;;;;29.16;29.08;101951.44;5257554;28;20397;-73
2022/08/11 11:56:45;;;;;;;5.75;3.33;;;;;;;29.19;28.25;101944.94;5252562;28;20028;-72
2022/08/11 12:02:11;;;;;;;11.73;10.25;;;;;;;29.38;28.13;101941.06;5239636;28;20024;-79
2022/08/11 12:04:47;;;;;;;8.55;5.25;;;;;;;29.46;28.45;101940.72;5260223;28;20041;-78
2022/08/11 12:10:09;;;;;;;8.35;3.50;;;;;;;29.52;28.46;101944.03;5244016;28;20107;-78
2022/08/11 12:15:31;;;;;;;5.20;3.35;;;;;;;29.62;27.71;101939.63;5250558;28;20041;-77
2022/08/11 12:18:03;;;;;;;6.18;2.95;;;;;;;29.59;27.35;101929.81;5248166;28;20396;-78
2022/08/11 12:20:37;;;;;;;4.95;3.33;;;;;;;29.57;27.63;101932.22;5255134;28;20426;-78
2022/08/11 12:28:49;;;;;;;4.72;3.58;;;;;;;29.82;28.07;101920.22;5253123;28;20033;-76
2022/08/11 12:31:24;;;;;;;3.88;2.90;;;;;;;29.90;27.54;101919.88;5254152;28;20029;-76
2022/08/11 12:34:07;;;;;;;5.20;3.28;;;;;;;30.04;27.05;101909.75;5248795;28;20113;-75
2022/08/11 12:36:41;;;;;;;8.18;3.30;;;;;;;30.13;26.42;101913.06;5240640;28;20030;-74
2022/08/11 12:39:18;;;;;;;3.37;3.00;;;;;;;30.18;26.59;101914.75;5246876;28;20495;-73
2022/08/11 12:51:55;;;;;;;6.70;5.38;;;;;;;30.15;26.18;101896.34;5252206;28;20041;-74
2022/08/11 12:53:14;;;;;;;5.55;3.17;;;;;;;30.36;26.29;101877.69;5250390;28;20033;-75
2022/08/11 12:58:40;;;;;;;6.30;3.20;;;;;;;30.61;27.02;101881.47;5264111;28;20116;-75
2022/08/11 13:06:54;;;;;;;5.15;3.28;;;;;;;30.89;25.46;101882.81;5262507;28;20061;-76
2022/08/11 13:09:25;;;;;;;3.45;2.85;;;;;;;30.94;24.55;101883.22;5255176;28;20448;-74
2022/08/11 13:14:46;;;;;;;4.38;2.83;;;;;;;30.84;23.93;101866.03;5258807;28;20120;-75
2022/08/11 13:17:21;;;;;;;2.65;2.45;;;;;;;30.86;24.83;101869.28;5251281;28;20377;-77
2022/08/11 13:19:53;;;;;;;3.80;2.80;;;;;;;30.89;24.51;101866.44;5259891;28;20025;-77
2022/08/11 13:22:25;;;;;;;6.38;3.05;;;;;;;31.18;24.15;101857.88;5260371;28;20078;-78
2022/08/11 13:24:57;;;;;;;3.72;2.88;;;;;;;31.35;23.29;101862.00;5254148;28;20029;-77
2022/08/11 13:27:32;;;;;;;4.55;2.97;;;;;;;31.40;23.64;101858.75;5251671;28;20155;-77
2022/08/11 13:33:06;;;;;;;5.97;3.53;;;;;;;31.45;24.20;101852.59;5255414;28;20044;-78
2022/08/11 13:35:38;;;;;;;5.30;4.20;;;;;;;31.47;24.51;101855.03;5264078;28;20017;-77
2022/08/11 13:38:13;;;;;;;7.45;3.88;;;;;;;31.54;23.84;101850.13;5247835;28;20313;-78
2022/08/11 13:40:45;;;;;;;7.63;5.00;;;;;;;31.51;23.19;101856.69;5261221;28;20082;-77
2022/08/11 13:43:18;;;;;;;6.60;4.90;;;;;;;31.61;23.01;101849.31;5250071;28;20116;-78
2022/08/11 13:46:17;;;;;;;7.18;6.50;;;;;;;31.82;23.29;101851.31;5260281;28;20035;-77
2022/08/11 13:48:43;;;;;;;4.78;3.38;;;;;;;31.81;22.29;101846.81;5243192;28;20032;-80
2022/08/11 13:51:32;;;;;;;3.17;2.45;;;;;;;31.88;22.58;101843.94;5251727;28;20033;-80
2022/08/11 13:54:19;;;;;;;4.55;2.92;;;;;;;31.99;22.47;101843.94;5263818;28;20018;-80
2022/08/11 13:56:55;;;;;;;4.45;2.72;;;;;;;31.89;23.04;101842.69;5258371;28;20395;-80
2022/08/11 13:59:27;;;;;;;5.47;2.78;;;;;;;32.05;22.61;101843.06;5255264;28;20218;-81
2022/08/11 14:02:03;;;;;;;9.50;5.65;;;;;;;31.97;22.29;101832.88;5259115;28;20064;-81
2022/08/11 14:04:38;;;;;;;3.92;3.08;;;;;;;32.07;22.80;101836.94;5263379;28;20357;-81
2022/08/11 14:07:13;;;;;;;9.75;3.00;;;;;;;32.06;22.73;101841.06;5252430;28;20030;-81
2022/08/11 14:09:45;;;;;;;8.27;2.80;;;;;;;32.13;22.49;101831.59;5258381;28;20048;-78
2022/08/11 14:15:29;;;;;;;6.07;3.33;;;;;;;32.25;23.07;101825.38;5257876;28;20029;-77
2022/08/11 14:18:08;;;;;;;6.03;3.10;;;;;;;32.21;22.71;101822.53;5235502;28;20028;-78
2022/08/11 14:23:39;;;;;;;4.68;2.55;;;;;;;32.39;23.21;101825.34;5257052;28;20029;-73
2022/08/11 14:29:07;;;;;;;6.45;3.28;;;;;;;32.31;22.58;101820.84;5254110;28;20076;-77
2022/08/11 14:31:47;;;;;;;6.70;2.97;;;;;;;32.50;22.69;101821.63;5253766;28;20035;-78
2022/08/11 14:34:22;;;;;;;3.58;2.55;;;;;;;32.44;22.97;101819.16;5246422;28;20029;-78
2022/08/11 14:36:57;;;;;;;3.75;2.75;;;;;;;32.46;22.02;101815.84;5262439;28;20110;-78
2022/08/11 14:39:36;;;;;;;4.47;2.28;;;;;;;32.45;22.20;101817.09;5256509;28;20044;-78
2022/08/11 14:48:00;;;;;;;4.28;2.88;;;;;;;32.32;22.89;101807.34;5263547;28;20472;-74
2022/08/11 14:50:33;;;;;;;5.35;3.53;;;;;;;32.08;23.75;101812.75;5249036;28;20045;-74
2022/08/11 14:53:10;;;;;;;6.88;4.03;;;;;;;32.15;24.03;101806.16;5238081;28;20495;-76
2022/08/11 14:58:33;;;;;;;5.00;2.92;;;;;;;32.23;23.73;101799.97;5240288;28;20045;-74
2022/08/11 15:03:05;;;;;;;4.60;2.63;;;;;;;32.05;24.03;101802.91;5253077;28;20045;-73
2022/08/11 15:03:59;;;;;;;3.83;3.33;;;;;;;32.00;24.29;101786.13;5259342;28;20028;-73
2022/08/11 15:06:32;;;;;;;5.40;3.50;;;;;;;31.89;25.19;101793.13;5255221;28;20112;-74
2022/08/11 15:09:05;;;;;;;4.50;3.38;;;;;;;31.99;24.71;101793.13;5248362;28;20041;-75
2022/08/11 15:17:21;;;;;;;3.70;3.13;;;;;;;31.58;24.26;101785.00;5245123;28;20108;-74
2022/08/11 15:25:34;;;;;;;6.55;3.25;;;;;;;31.34;25.25;101775.16;5230909;28;20038;-74
2022/08/11 15:45:50;;;;;;;5.63;3.17;;;;;;;31.18;25.35;101764.16;5251684;28;20072;-70
2022/08/11 15:48:42;;;;;;;6.68;2.85;;;;;;;31.21;24.20;101771.09;5255105;28;20503;-70
2022/08/11 15:51:36;;;;;;;4.63;2.75;;;;;;;31.25;23.77;101766.19;5254911;28;20036;-73
2022/08/11 15:54:12;;;;;;;5.75;2.67;;;;;;;31.35;23.98;101755.97;5256794;28;20037;-73
2022/08/11 15:56:47;;;;;;;4.15;2.70;;;;;;;31.18;24.63;101758.41;5253487;28;20021;-74
2022/08/11 16:04:49;;;;;;;3.33;2.92;;;;;;;31.19;23.21;101745.75;5256355;28;20112;-74
2022/08/11 16:07:26;;;;;;;3.45;2.20;;;;;;;31.29;23.16;101749.81;5242122;28;20029;-73
2022/08/11 16:10:20;;;;;;;33.03;30.13;;;;;;;31.45;23.29;101752.28;5258667;28;20037;-74
2022/08/11 16:16:14;;;;;;;5.63;3.10;;;;;;;31.34;22.68;101737.91;5245560;28;20100;-73
2022/08/11 16:18:56;;;;;;;3.35;2.80;;;;;;;31.18;23.34;101744.09;5252991;28;20150;-73
2022/08/11 16:21:35;;;;;;;5.22;2.10;;;;;;;31.12;22.44;101740.03;5255940;28;20037;-72
2022/08/11 16:24:09;;;;;;;5.82;3.05;;;;;;;31.34;22.89;101737.91;5256362;28;20052;-72
2022/08/11 16:26:42;;;;;;;6.40;2.17;;;;;;;31.31;23.56;101735.88;5263639;28;20116;-73
2022/08/11 16:29:15;;;;;;;4.65;2.42;;;;;;;31.38;23.74;101735.91;5263489;28;20017;-73
2022/08/11 16:40:28;;;;;;;2.30;2.10;;;;;;;31.26;24.70;101724.84;5256192;28;20465;-74
2022/08/11 16:48:46;;;;;;;4.70;2.50;;;;;;;31.45;22.79;101720.75;5258297;28;20033;-79
2022/08/11 16:51:19;;;;;;;6.00;3.13;;;;;;;31.41;23.62;101717.06;5256770;28;20025;-73
2022/08/11 16:53:51;;;;;;;4.13;2.78;;;;;;;31.27;23.70;101717.91;5249144;28;20122;-74
2022/08/11 16:56:31;;;;;;;4.28;2.42;;;;;;;31.49;24.13;101724.41;5259617;28;20057;-74
2022/08/11 16:59:14;;;;;;;4.55;2.40;;;;;;;31.53;24.09;101719.50;5255202;28;20064;-73
2022/08/11 17:02:11;;;;;;;5.80;2.88;;;;;;;31.43;23.52;101708.06;5264657;28;20501;-73
2022/08/11 17:13:37;;;;;;;7.28;2.47;;;;;;;31.74;23.72;101706.31;5264142;28;20131;-72
2022/08/11 17:16:11;;;;;;;4.07;2.60;;;;;;;31.72;23.66;101703.06;5247814;28;20055;-70
2022/08/11 17:18:49;;;;;;;6.10;2.72;;;;;;;31.56;24.04;101701.47;5254966;28;20036;-71
2022/08/11 17:21:34;;;;;;;3.83;2.65;;;;;;;31.60;24.02;101695.75;5257530;28;20036;-71
2022/08/11 17:24:09;;;;;;;4.50;2.80;;;;;;;31.55;24.77;101705.59;5242497;28;20071;-71
2022/08/11 17:26:55;;;;;;;4.30;3.35;;;;;;;31.65;24.18;101708.81;5255764;28;20103;-71
2022/08/11 17:29:41;;;;;;;6.57;2.72;;;;;;;31.72;23.99;101703.88;5257674;28;20057;-71
